createdAt,value
2022-09-11T00:01:21.347Z,76.10
2022-09-11T00:03:48.667Z,76.10
2022-09-11T00:06:28.925Z,76.20
2022-09-11T00:09:01.563Z,76.30
2022-09-11T00:11:40.820Z,76.40
2022-09-11T00:14:08.490Z,76.40
2022-09-11T00:16:39.087Z,76.50
2022-09-11T00:19:15.819Z,76.40
2022-09-11T00:21:42.983Z,76.40
2022-09-11T00:24:09.985Z,76.30
2022-09-11T00:26:37.657Z,76.30
2022-09-11T00:29:05.016Z,76.40
2022-09-11T00:31:32.490Z,76.60
2022-09-11T00:33:59.537Z,76.70
2022-09-11T00:36:29.212Z,76.60
2022-09-11T00:38:57.918Z,76.60
2022-09-11T00:41:34.305Z,76.70
2022-09-11T00:44:07.465Z,76.70
2022-09-11T00:46:44.662Z,76.60
2022-09-11T00:49:28.311Z,76.70
2022-09-11T00:51:59.373Z,76.70
2022-09-11T00:54:35.958Z,76.80
2022-09-11T00:57:06.373Z,76.70
2022-09-11T00:59:33.341Z,76.70
2022-09-11T01:02:00.492Z,76.90
2022-09-11T01:04:29.179Z,76.90
2022-09-11T01:06:57.509Z,77.00
2022-09-11T01:09:27.477Z,77.00
2022-09-11T01:12:03.838Z,77.00
2022-09-11T01:14:40.502Z,77.00
2022-09-11T01:17:21.852Z,77.00
2022-09-11T01:20:14.676Z,77.10
2022-09-11T01:23:07.708Z,77.20
2022-09-11T01:25:56.111Z,77.40
2022-09-11T01:28:52.324Z,77.50
2022-09-11T01:31:23.511Z,77.20
2022-09-11T01:34:06.769Z,77.30
2022-09-11T01:36:40.514Z,77.30
2022-09-11T01:39:07.254Z,77.30
2022-09-11T01:41:33.814Z,77.30
2022-09-11T01:44:06.950Z,77.50
2022-09-11T01:46:40.685Z,77.40
2022-09-11T01:49:15.455Z,77.40
2022-09-11T01:51:42.256Z,77.30
2022-09-11T01:54:16.996Z,77.40
2022-09-11T01:56:50.315Z,77.40
2022-09-11T01:59:19.569Z,77.40
2022-09-11T02:01:51.288Z,77.40
2022-09-11T02:04:30.004Z,77.40
2022-09-11T02:07:03.045Z,77.30
2022-09-11T02:09:46.834Z,77.40
2022-09-11T02:12:17.666Z,77.40
2022-09-11T02:14:47.631Z,77.30
2022-09-11T02:17:43.274Z,77.30
2022-09-11T02:20:10.817Z,77.10
2022-09-11T02:22:37.724Z,77.20
2022-09-11T02:25:05.599Z,77.20
2022-09-11T02:27:33.600Z,77.20
2022-09-11T02:30:00.947Z,77.20
2022-09-11T02:32:28.667Z,77.20
2022-09-11T02:34:56.177Z,77.20
2022-09-11T02:37:49.293Z,77.30
2022-09-11T02:40:37.357Z,77.50
2022-09-11T02:43:48.116Z,77.30
2022-09-11T02:46:29.734Z,77.30
2022-09-11T02:49:02.487Z,77.40
2022-09-11T02:51:43.591Z,77.50
2022-09-11T02:54:15.992Z,77.60
2022-09-11T02:56:56.771Z,77.60
2022-09-11T02:59:35.655Z,77.60
2022-09-11T03:02:02.443Z,78.40
2022-09-11T03:04:29.746Z,77.70
2022-09-11T03:06:58.679Z,77.60
2022-09-11T03:09:25.512Z,77.80
2022-09-11T03:11:52.146Z,77.80
2022-09-11T03:14:18.807Z,77.90
2022-09-11T03:16:45.600Z,77.90
2022-09-11T03:19:13.017Z,77.90
2022-09-11T03:21:39.870Z,77.80
2022-09-11T03:24:08.556Z,77.80
2022-09-11T03:26:35.943Z,77.90
2022-09-11T03:29:03.386Z,77.90
2022-09-11T03:31:30.207Z,77.90
2022-09-11T03:33:57.710Z,78.00
2022-09-11T03:36:24.525Z,78.00
2022-09-11T03:38:52.517Z,78.00
2022-09-11T03:41:19.150Z,78.00
2022-09-11T03:43:45.753Z,78.20
2022-09-11T03:46:12.383Z,78.10
2022-09-11T03:48:39.224Z,78.20
2022-09-11T03:51:06.079Z,78.20
2022-09-11T03:53:33.270Z,78.20
2022-09-11T03:56:01.017Z,78.20
2022-09-11T03:58:27.649Z,78.30
2022-09-11T04:00:54.297Z,78.50
2022-09-11T04:03:20.955Z,78.60
2022-09-11T04:06:01.905Z,78.80
2022-09-11T04:08:33.447Z,79.00
2022-09-11T04:11:02.977Z,79.10
2022-09-11T04:13:37.574Z,79.10
2022-09-11T04:16:11.580Z,79.20
2022-09-11T04:18:40.213Z,79.40
2022-09-11T04:21:08.634Z,79.50
2022-09-11T04:23:35.398Z,79.70
2022-09-11T04:26:02.457Z,79.70
2022-09-11T04:28:30.187Z,79.90
2022-09-11T04:31:01.712Z,80.00
2022-09-11T04:33:28.385Z,80.20
2022-09-11T04:35:55.010Z,80.30
2022-09-11T04:38:23.922Z,80.40
2022-09-11T04:40:50.717Z,80.50
2022-09-11T04:43:17.742Z,80.70
2022-09-11T04:45:44.398Z,80.70
2022-09-11T04:48:11.063Z,80.80
2022-09-11T04:50:37.657Z,80.70
2022-09-11T04:53:04.386Z,80.80
2022-09-11T04:55:31.030Z,80.90
2022-09-11T04:57:57.654Z,81.00
2022-09-11T05:00:25.012Z,81.00
2022-09-11T05:02:53.630Z,81.00
2022-09-11T05:05:20.495Z,81.20
2022-09-11T05:07:50.394Z,81.30
2022-09-11T05:10:17.196Z,81.30
2022-09-11T05:12:43.872Z,81.40
2022-09-11T05:15:10.924Z,81.40
2022-09-11T05:17:38.010Z,81.50
2022-09-11T05:20:09.814Z,81.40
2022-09-11T05:22:38.354Z,81.50
2022-09-11T05:25:05.250Z,81.50
2022-09-11T05:27:31.857Z,81.60
2022-09-11T05:29:58.486Z,81.70
2022-09-11T05:32:25.092Z,81.70
2022-09-11T05:34:51.752Z,81.70
2022-09-11T05:37:18.365Z,81.80
2022-09-11T05:39:45.081Z,81.90
2022-09-11T05:42:11.750Z,82.00
2022-09-11T05:44:38.448Z,82.00
2022-09-11T05:47:05.259Z,82.20
2022-09-11T05:49:31.922Z,82.30
2022-09-11T05:51:58.555Z,82.30
2022-09-11T05:54:25.525Z,82.30
2022-09-11T05:56:52.523Z,82.40
2022-09-11T05:59:20.033Z,82.60
2022-09-11T06:01:47.881Z,82.60
2022-09-11T06:04:14.623Z,82.70
2022-09-11T06:06:41.295Z,82.80
2022-09-11T06:09:08.391Z,82.90
2022-09-11T06:11:35.234Z,82.90
2022-09-11T06:14:01.888Z,83.10
2022-09-11T06:16:31.511Z,83.20
2022-09-11T06:18:58.365Z,83.20
2022-09-11T06:21:27.249Z,83.50
2022-09-11T06:23:54.066Z,83.50
2022-09-11T06:26:23.657Z,83.70
2022-09-11T06:28:53.507Z,83.80
2022-09-11T06:31:22.452Z,84.00
2022-09-11T06:33:49.847Z,84.20
2022-09-11T06:36:19.479Z,84.30
2022-09-11T06:38:47.208Z,84.40
2022-09-11T06:41:16.220Z,84.60
2022-09-11T06:43:44.146Z,84.50
2022-09-11T06:46:15.113Z,84.60
2022-09-11T06:48:43.491Z,84.50
2022-09-11T06:51:12.125Z,84.70
2022-09-11T06:53:40.887Z,84.70
2022-09-11T06:56:09.912Z,84.70
2022-09-11T06:58:36.541Z,84.70
2022-09-11T07:01:11.193Z,84.80
2022-09-11T07:03:37.973Z,84.80
2022-09-11T07:06:06.463Z,84.90
2022-09-11T07:08:33.132Z,84.90
2022-09-11T07:11:06.404Z,85.00
2022-09-11T07:13:37.503Z,85.10
2022-09-11T07:16:07.734Z,85.70
2022-09-11T07:18:42.930Z,85.30
2022-09-11T07:21:15.241Z,85.70
2022-09-11T07:23:43.334Z,85.80
2022-09-11T07:26:12.556Z,85.70
2022-09-11T07:28:39.988Z,86.00
2022-09-11T07:31:15.255Z,85.90
2022-09-11T07:33:46.084Z,85.90
2022-09-11T07:36:14.672Z,85.90
2022-09-11T07:38:42.719Z,85.90
2022-09-11T07:41:10.553Z,86.20
2022-09-11T07:43:38.561Z,86.30
2022-09-11T07:46:06.708Z,86.50
2022-09-11T07:48:33.373Z,86.60
2022-09-11T07:51:02.387Z,86.60
2022-09-11T07:53:49.569Z,86.70
2022-09-11T07:56:24.242Z,86.80
2022-09-11T07:58:54.843Z,86.90
2022-09-11T08:01:26.662Z,86.90
2022-09-11T08:03:54.727Z,86.90
2022-09-11T08:06:23.857Z,86.90
2022-09-11T08:09:00.176Z,87.10
2022-09-11T08:11:28.328Z,87.10
2022-09-11T08:13:55.980Z,87.20
2022-09-11T08:16:25.533Z,87.40
2022-09-11T08:18:53.347Z,87.50
2022-09-11T08:21:20.531Z,87.60
2022-09-11T08:23:48.975Z,87.60
2022-09-11T08:26:19.629Z,87.80
2022-09-11T08:28:46.335Z,87.90
2022-09-11T08:31:13.793Z,87.90
2022-09-11T08:33:40.601Z,87.90
2022-09-11T08:36:09.679Z,87.70
2022-09-11T08:38:37.835Z,87.60
2022-09-11T08:41:32.098Z,87.50
2022-09-11T08:44:26.465Z,87.40
2022-09-11T08:47:06.147Z,86.90
2022-09-11T08:49:46.287Z,86.70
2022-09-11T08:52:15.660Z,86.20
2022-09-11T08:54:46.024Z,85.60
2022-09-11T08:57:40.960Z,85.20
2022-09-11T09:00:22.480Z,84.80
2022-09-11T09:03:14.676Z,84.40
2022-09-11T09:06:25.325Z,84.00
2022-09-11T09:09:34.790Z,83.30
2022-09-11T09:12:23.243Z,83.40
2022-09-11T09:15:08.246Z,82.50
2022-09-11T09:17:48.348Z,80.60
2022-09-11T09:20:28.881Z,82.30
2022-09-11T09:23:03.695Z,82.00
2022-09-11T09:25:35.963Z,81.80
2022-09-11T09:28:21.291Z,81.90
2022-09-11T09:31:00.146Z,81.60
2022-09-11T09:33:42.315Z,81.50
2022-09-11T09:36:39.786Z,81.30
2022-09-11T09:39:13.778Z,81.20
2022-09-11T09:42:17.734Z,81.00
2022-09-11T09:44:50.744Z,80.00
2022-09-11T09:47:18.171Z,80.60
2022-09-11T09:49:45.376Z,80.00
2022-09-11T09:52:24.457Z,79.10
2022-09-11T09:54:54.359Z,78.20
2022-09-11T09:57:24.108Z,78.30
2022-09-11T09:59:52.853Z,77.70
2022-09-11T10:02:38.585Z,76.90
2022-09-11T10:05:25.570Z,76.40
2022-09-11T10:08:26.504Z,76.70
2022-09-11T10:11:12.150Z,75.50
2022-09-11T10:13:42.271Z,75.30
2022-09-11T10:16:26.633Z,75.60
2022-09-11T10:18:54.894Z,75.50
2022-09-11T10:21:25.943Z,75.40
2022-09-11T10:24:19.445Z,75.50
2022-09-11T10:26:50.892Z,74.70
2022-09-11T10:29:27.275Z,73.80
2022-09-11T10:31:59.541Z,73.30
2022-09-11T10:34:28.004Z,73.70
2022-09-11T10:37:00.429Z,73.50
2022-09-11T10:39:29.504Z,73.60
2022-09-11T10:41:59.697Z,73.20
2022-09-11T10:44:27.389Z,72.90
2022-09-11T10:47:13.282Z,71.70
2022-09-11T10:49:39.971Z,71.80
2022-09-11T10:52:09.391Z,71.50
2022-09-11T10:55:20.711Z,70.80
2022-09-11T10:57:53.662Z,70.00
2022-09-11T11:00:24.369Z,70.30
2022-09-11T11:02:55.931Z,70.80
2022-09-11T11:05:48.887Z,71.10
2022-09-11T11:08:15.712Z,71.00
2022-09-11T11:10:59.059Z,70.80
2022-09-11T11:13:55.605Z,70.20
2022-09-11T11:16:48.470Z,70.80
2022-09-11T11:19:27.618Z,70.70
2022-09-11T11:22:31.138Z,71.10
2022-09-11T11:25:27.364Z,70.50
2022-09-11T11:28:22.020Z,69.00
2022-09-11T11:31:04.119Z,70.00
2022-09-11T11:33:51.953Z,70.10
2022-09-11T11:36:53.246Z,69.30
2022-09-11T11:39:24.884Z,68.40
2022-09-11T11:42:05.956Z,69.30
2022-09-11T11:44:52.182Z,67.90
2022-09-11T11:47:25.249Z,68.00
2022-09-11T11:50:19.216Z,68.20
2022-09-11T11:53:08.312Z,67.40
2022-09-11T11:55:43.882Z,66.60
2022-09-11T11:58:31.768Z,67.10
2022-09-11T12:01:04.332Z,67.90
2022-09-11T12:03:38.050Z,67.30
2022-09-11T12:06:07.951Z,67.70
2022-09-11T12:08:45.399Z,67.90
2022-09-11T12:11:16.134Z,67.40
2022-09-11T12:13:46.602Z,67.80
2022-09-11T12:16:15.662Z,67.00
2022-09-11T12:19:07.735Z,66.40
2022-09-11T12:21:38.207Z,64.60
2022-09-11T12:24:04.800Z,65.10
2022-09-11T12:26:32.057Z,65.50
2022-09-11T12:29:14.464Z,64.70
2022-09-11T12:31:50.361Z,65.00
2022-09-11T12:34:18.700Z,65.10
2022-09-11T12:37:26.583Z,65.40
2022-09-11T12:40:11.645Z,64.90
2022-09-11T12:42:38.268Z,65.50
2022-09-11T12:45:25.460Z,65.70
2022-09-11T12:47:52.373Z,65.70
2022-09-11T12:50:22.083Z,65.80
2022-09-11T12:53:02.314Z,65.90
2022-09-11T12:55:43.286Z,66.20
2022-09-11T12:58:18.902Z,66.60
2022-09-11T13:00:48.938Z,67.00
2022-09-11T13:03:23.056Z,67.00
2022-09-11T13:06:07.554Z,67.20
2022-09-11T13:08:40.507Z,67.00
2022-09-11T13:11:38.199Z,67.30
2022-09-11T13:14:25.621Z,66.90
2022-09-11T13:16:52.334Z,67.50
2022-09-11T13:19:20.644Z,67.70
2022-09-11T13:21:56.682Z,68.00
2022-09-11T13:24:34.347Z,68.00
2022-09-11T13:27:13.646Z,68.10
2022-09-11T13:29:40.921Z,68.30
2022-09-11T13:32:13.260Z,68.20
2022-09-11T13:34:44.844Z,68.40
2022-09-11T13:37:14.407Z,68.20
2022-09-11T13:39:43.181Z,68.20
2022-09-11T13:42:16.632Z,67.50
2022-09-11T13:44:47.000Z,67.10
2022-09-11T13:47:20.900Z,66.70
2022-09-11T13:49:48.959Z,66.70
2022-09-11T13:52:16.215Z,66.60
2022-09-11T13:54:49.122Z,66.10
2022-09-11T13:57:18.723Z,64.80
2022-09-11T13:59:51.825Z,64.10
2022-09-11T14:02:40.834Z,64.30
2022-09-11T14:05:07.529Z,64.00
2022-09-11T14:07:42.494Z,63.00
2022-09-11T14:10:19.440Z,62.70
2022-09-11T14:12:52.991Z,62.60
2022-09-11T14:15:32.033Z,62.70
2022-09-11T14:18:02.265Z,61.70
2022-09-11T14:20:30.187Z,60.70
2022-09-11T14:23:04.001Z,58.20
2022-09-11T14:25:31.765Z,59.70
2022-09-11T14:27:58.975Z,58.40
2022-09-11T14:30:37.674Z,58.90
2022-09-11T14:33:23.079Z,57.50
2022-09-11T14:35:51.898Z,57.40
2022-09-11T14:38:21.109Z,58.20
2022-09-11T14:40:52.203Z,58.50
2022-09-11T14:43:32.608Z,58.30
2022-09-11T14:46:00.629Z,58.60
2022-09-11T14:48:31.833Z,58.90
2022-09-11T14:50:59.333Z,59.20
2022-09-11T14:53:34.244Z,59.40
2022-09-11T14:56:02.692Z,59.60
2022-09-11T14:58:30.066Z,60.10
2022-09-11T15:00:57.676Z,60.40
2022-09-11T15:03:25.408Z,60.60
2022-09-11T15:06:01.124Z,60.80
2022-09-11T15:08:27.789Z,60.90
2022-09-11T15:10:54.505Z,62.00
2022-09-11T15:13:21.612Z,61.30
2022-09-11T15:15:48.446Z,61.40
2022-09-11T15:18:15.175Z,61.70
2022-09-11T15:20:41.961Z,61.90
2022-09-11T15:23:08.840Z,62.20
2022-09-11T15:25:35.526Z,62.50
2022-09-11T15:28:02.304Z,62.80
2022-09-11T15:30:29.329Z,63.00
2022-09-11T15:32:56.009Z,63.10
2022-09-11T15:35:23.929Z,63.30
2022-09-11T15:37:50.738Z,63.50
2022-09-11T15:40:17.917Z,63.80
2022-09-11T15:42:44.768Z,63.90
2022-09-11T15:45:12.808Z,63.90
2022-09-11T15:47:40.246Z,63.90
2022-09-11T15:50:07.788Z,64.00
2022-09-11T15:52:35.754Z,64.00
2022-09-11T15:55:03.205Z,64.10
2022-09-11T15:57:31.082Z,64.10
2022-09-11T15:59:57.910Z,64.20
2022-09-11T16:02:24.657Z,64.40
2022-09-11T16:04:53.781Z,64.70
2022-09-11T16:07:21.032Z,64.70
2022-09-11T16:09:47.731Z,64.80
2022-09-11T16:12:15.624Z,65.10
2022-09-11T16:14:43.564Z,65.30
2022-09-11T16:17:10.507Z,65.30
2022-09-11T16:19:38.588Z,65.30
2022-09-11T16:22:06.259Z,65.50
2022-09-11T16:24:37.137Z,65.70
2022-09-11T16:27:06.550Z,66.20
2022-09-11T16:29:59.027Z,66.70
2022-09-11T16:32:28.061Z,66.90
2022-09-11T16:34:56.207Z,67.00
2022-09-11T16:37:22.861Z,67.30
2022-09-11T16:39:50.758Z,67.50
2022-09-11T16:42:21.709Z,67.70
2022-09-11T16:44:49.601Z,67.80
2022-09-11T16:47:17.216Z,68.00
2022-09-11T16:50:05.907Z,68.10
2022-09-11T16:52:32.045Z,68.20
2022-09-11T16:54:58.784Z,69.20
2022-09-11T16:57:27.303Z,68.50
2022-09-11T16:59:54.277Z,68.60
2022-09-11T17:02:20.992Z,68.50
2022-09-11T17:04:47.789Z,68.50
2022-09-11T17:07:14.432Z,68.70
2022-09-11T17:09:43.658Z,68.90
2022-09-11T17:12:10.934Z,69.00
2022-09-11T17:14:38.199Z,69.20
2022-09-11T17:17:05.019Z,69.20
2022-09-11T17:19:31.757Z,69.30
2022-09-11T17:21:59.115Z,69.30
2022-09-11T17:24:26.015Z,69.40
2022-09-11T17:26:52.731Z,69.50
2022-09-11T17:29:19.714Z,69.60
2022-09-11T17:31:46.856Z,69.60
2022-09-11T17:34:14.627Z,69.70
2022-09-11T17:36:41.627Z,69.90
2022-09-11T17:39:09.341Z,70.00
2022-09-11T17:41:36.117Z,70.00
2022-09-11T17:44:03.125Z,70.20
2022-09-11T17:46:29.798Z,70.10
2022-09-11T17:48:56.502Z,70.30
2022-09-11T17:51:25.163Z,70.40
2022-09-11T17:53:56.137Z,70.50
2022-09-11T17:56:30.709Z,70.80
2022-09-11T17:58:59.525Z,70.80
2022-09-11T18:01:28.502Z,70.90
2022-09-11T18:03:57.316Z,71.00
2022-09-11T18:06:34.500Z,71.10
2022-09-11T18:09:15.061Z,71.10
2022-09-11T18:11:43.073Z,71.10
2022-09-11T18:14:11.385Z,71.20
2022-09-11T18:16:38.092Z,71.30
2022-09-11T18:19:05.463Z,71.40
2022-09-11T18:21:38.321Z,71.40
2022-09-11T18:24:06.424Z,71.50
2022-09-11T18:26:39.491Z,71.60
2022-09-11T18:29:12.954Z,71.70
2022-09-11T18:31:42.206Z,71.70
2022-09-11T18:34:15.125Z,71.70
2022-09-11T18:36:42.665Z,71.90
2022-09-11T18:39:11.843Z,71.90
2022-09-11T18:41:39.092Z,72.00
2022-09-11T18:44:11.150Z,72.00
2022-09-11T18:46:37.999Z,72.20
2022-09-11T18:49:04.981Z,72.30
2022-09-11T18:51:31.831Z,72.40
2022-09-11T18:54:00.157Z,72.50
2022-09-11T18:56:29.375Z,72.60
2022-09-11T18:58:56.343Z,72.70
2022-09-11T19:01:26.403Z,72.80
2022-09-11T19:03:53.502Z,72.90
2022-09-11T19:06:25.721Z,72.80
2022-09-11T19:08:54.809Z,73.00
2022-09-11T19:11:27.306Z,73.20
2022-09-11T19:14:00.310Z,73.20
2022-09-11T19:16:27.000Z,73.20
2022-09-11T19:18:53.849Z,73.20
2022-09-11T19:21:23.128Z,73.20
2022-09-11T19:24:00.836Z,73.20
2022-09-11T19:26:33.867Z,73.20
2022-09-11T19:29:01.012Z,73.40
2022-09-11T19:31:29.603Z,73.30
2022-09-11T19:33:57.876Z,73.40
2022-09-11T19:36:26.779Z,73.30
2022-09-11T19:38:55.942Z,73.40
2022-09-11T19:41:24.450Z,73.40
2022-09-11T19:43:51.126Z,73.50
2022-09-11T19:46:20.789Z,73.60
2022-09-11T19:48:48.770Z,73.70
2022-09-11T19:51:21.516Z,73.80
2022-09-11T19:53:49.655Z,73.90
2022-09-11T19:56:17.260Z,73.90
2022-09-11T19:58:43.951Z,74.00
2022-09-11T20:01:21.373Z,74.00
2022-09-11T20:03:48.894Z,74.00
2022-09-11T20:06:18.425Z,74.00
2022-09-11T20:08:47.180Z,74.10
2022-09-11T20:11:22.664Z,74.20
2022-09-11T20:13:49.419Z,74.10
2022-09-11T20:16:19.925Z,74.10
2022-09-11T20:18:46.804Z,74.20
2022-09-11T20:21:15.745Z,74.30
2022-09-11T20:23:44.926Z,74.30
2022-09-11T20:26:16.963Z,74.40
2022-09-11T20:28:47.153Z,74.50
2022-09-11T20:31:18.843Z,74.40
2022-09-11T20:33:46.252Z,74.50
2022-09-11T20:36:14.250Z,74.60
2022-09-11T20:38:40.909Z,74.60
2022-09-11T20:41:09.448Z,75.50
2022-09-11T20:43:36.259Z,74.60
2022-09-11T20:46:03.339Z,74.60
2022-09-11T20:48:30.816Z,74.70
2022-09-11T20:51:05.981Z,74.70
2022-09-11T20:53:32.680Z,74.90
2022-09-11T20:56:04.268Z,74.90
2022-09-11T20:58:30.999Z,74.90
2022-09-11T21:00:58.336Z,74.90
2022-09-11T21:03:26.284Z,74.90
2022-09-11T21:05:52.967Z,75.00
2022-09-11T21:08:19.701Z,75.10
2022-09-11T21:10:46.374Z,75.00
2022-09-11T21:13:13.030Z,75.20
2022-09-11T21:15:44.365Z,75.30
2022-09-11T21:18:11.779Z,75.20
2022-09-11T21:20:38.426Z,75.20
2022-09-11T21:23:05.874Z,75.30
2022-09-11T21:25:37.242Z,75.30
2022-09-11T21:28:03.873Z,75.40
2022-09-11T21:30:30.473Z,75.40
2022-09-11T21:32:57.133Z,75.30
2022-09-11T21:35:23.749Z,75.30
2022-09-11T21:37:50.390Z,75.30
2022-09-11T21:40:17.039Z,75.30
2022-09-11T21:42:43.733Z,75.30
2022-09-11T21:45:10.742Z,75.30
2022-09-11T21:47:37.367Z,75.40
2022-09-11T21:50:07.985Z,75.40
2022-09-11T21:52:35.049Z,75.40
2022-09-11T21:55:01.752Z,75.50
2022-09-11T21:57:28.890Z,75.40
2022-09-11T21:59:56.234Z,75.50
2022-09-11T22:02:24.856Z,75.60
2022-09-11T22:04:52.631Z,75.70
2022-09-11T22:07:19.932Z,75.60
2022-09-11T22:09:48.487Z,75.70
2022-09-11T22:12:15.371Z,75.70
2022-09-11T22:14:44.826Z,75.70
2022-09-11T22:17:14.504Z,75.70
2022-09-11T22:19:44.348Z,75.80
2022-09-11T22:22:11.341Z,75.90
2022-09-11T22:24:38.774Z,75.90
2022-09-11T22:27:06.715Z,75.90
2022-09-11T22:29:33.520Z,75.90
2022-09-11T22:32:00.137Z,75.90
2022-09-11T22:34:26.910Z,75.90
2022-09-11T22:36:53.523Z,75.90
2022-09-11T22:39:20.141Z,76.00
2022-09-11T22:41:46.821Z,76.10
2022-09-11T22:44:13.580Z,76.00
2022-09-11T22:46:40.257Z,76.10
2022-09-11T22:49:07.077Z,76.10
2022-09-11T22:51:33.936Z,76.10
2022-09-11T22:54:00.702Z,76.10
2022-09-11T22:56:27.331Z,76.20
2022-09-11T22:58:54.047Z,76.20
2022-09-11T23:01:22.720Z,76.30
2022-09-11T23:03:51.279Z,76.20
2022-09-11T23:06:37.753Z,76.30
2022-09-11T23:09:12.606Z,76.40
2022-09-11T23:11:40.127Z,76.50
2022-09-11T23:14:13.745Z,76.50
2022-09-11T23:16:41.348Z,76.50
2022-09-11T23:19:08.155Z,76.50
2022-09-11T23:21:36.000Z,76.50
2022-09-11T23:24:06.026Z,76.60
2022-09-11T23:26:33.138Z,76.60
2022-09-11T23:28:59.860Z,76.70
2022-09-11T23:31:29.448Z,76.80
2022-09-11T23:33:58.745Z,76.80
2022-09-11T23:36:26.650Z,76.70
2022-09-11T23:38:53.501Z,76.80
2022-09-11T23:41:20.911Z,76.90
2022-09-11T23:43:47.918Z,76.90
2022-09-11T23:46:15.056Z,76.90
2022-09-11T23:48:42.214Z,76.90
2022-09-11T23:51:10.274Z,77.00
2022-09-11T23:53:39.131Z,76.90
2022-09-11T23:56:07.344Z,77.00
2022-09-11T23:58:39.213Z,77.00
